Time;durP1;ratioP1;P1;durP2;ratioP2;P2;SDS_P1;SDS_P2;PMS_P1;PMS_P2;Temp;Humidity;BMP_temperature;BMP_pressure;BME280_temperature;BME280_humidity;BME280_pressure;Samples;Min_cycle;Max_cycle;Signal;HPM_P1;HPM_P2
2021/05/13 00:01:04;;;;;;;2.65;1.83;;;10.80;85.40;;;;;;5014140;28;20148;-70
2021/05/13 00:03:30;;;;;;;2.67;1.88;;;10.80;85.00;;;;;;5014615;28;20060;-70
2021/05/13 00:05:56;;;;;;;3.38;1.98;;;10.80;84.80;;;;;;5031471;28;20025;-70
2021/05/13 00:08:22;;;;;;;3.10;1.80;;;10.70;84.70;;;;;;5031025;28;20025;-70
2021/05/13 00:10:47;;;;;;;2.50;1.80;;;10.70;85.00;;;;;;5031393;28;20030;-70
2021/05/13 00:13:13;;;;;;;3.58;1.90;;;10.50;85.40;;;;;;5032279;28;20386;-70
2021/05/13 00:15:41;;;;;;;2.78;2.17;;;10.50;85.80;;;;;;5032041;28;20176;-70
2021/05/13 00:18:08;;;;;;;4.40;2.22;;;10.50;86.00;;;;;;5032335;28;20072;-70
2021/05/13 00:20:44;;;;;;;4.03;3.03;;;10.40;86.50;;;;;;5032244;28;20022;-70
2021/05/13 00:23:09;;;;;;;6.70;3.20;;;10.30;87.20;;;;;;5014339;28;20040;-70
2021/05/13 00:25:36;;;;;;;3.78;2.40;;;10.40;87.50;;;;;;5032367;28;20021;-70
2021/05/13 00:28:02;;;;;;;8.48;2.85;;;10.30;87.30;;;;;;5013821;28;20057;-70
2021/05/13 00:30:28;;;;;;;5.18;3.10;;;10.30;86.80;;;;;;5032092;28;20109;-70
2021/05/13 00:32:54;;;;;;;7.05;3.13;;;10.30;87.00;;;;;;5013783;28;20117;-70
2021/05/13 00:35:20;;;;;;;3.60;2.88;;;10.20;86.90;;;;;;5014329;28;20029;-70
2021/05/13 00:37:47;;;;;;;4.57;2.95;;;10.10;87.10;;;;;;5013700;28;20026;-71
2021/05/13 00:40:15;;;;;;;3.92;2.58;;;10.30;87.50;;;;;;5014296;28;20033;-70
2021/05/13 00:42:41;;;;;;;4.30;2.72;;;10.40;87.80;;;;;;5031837;28;20489;-74
2021/05/13 00:45:09;;;;;;;3.90;2.42;;;10.40;87.50;;;;;;5014123;28;20026;-70
2021/05/13 00:47:37;;;;;;;8.55;2.47;;;10.40;87.80;;;;;;5015027;28;20383;-70
2021/05/13 00:50:05;;;;;;;3.55;2.33;;;10.40;87.30;;;;;;5017233;28;20541;-70
2021/05/13 00:52:33;;;;;;;6.45;2.95;;;10.30;87.40;;;;;;5035221;28;20036;-70
2021/05/13 00:54:59;;;;;;;3.83;2.38;;;10.30;87.60;;;;;;5016986;28;20040;-70
2021/05/13 00:57:26;;;;;;;3.35;2.03;;;10.30;87.30;;;;;;5017689;28;20025;-70
2021/05/13 00:59:56;;;;;;;5.28;2.45;;;10.30;87.20;;;;;;5034772;28;20459;-70
2021/05/13 01:02:24;;;;;;;3.47;2.58;;;10.20;86.90;;;;;;5017571;28;20061;-70
2021/05/13 01:04:50;;;;;;;4.00;2.30;;;10.20;86.70;;;;;;5033465;28;20052;-70
2021/05/13 01:07:15;;;;;;;3.35;2.70;;;10.30;86.90;;;;;;5017511;28;20459;-70
2021/05/13 01:09:41;;;;;;;5.03;3.15;;;10.40;87.60;;;;;;5035229;28;20373;-70
2021/05/13 01:12:16;;;;;;;4.03;2.45;;;10.30;86.70;;;;;;5034264;28;20499;-70
2021/05/13 01:14:47;;;;;;;3.60;2.70;;;10.30;86.60;;;;;;5034961;28;20040;-70
2021/05/13 01:19:56;;;;;;;3.90;2.50;;;10.20;86.60;;;;;;5034990;28;20087;-70
2021/05/13 01:22:24;;;;;;;3.30;2.47;;;10.20;86.60;;;;;;5017394;28;20028;-70
2021/05/13 01:24:50;;;;;;;4.65;2.65;;;10.10;86.60;;;;;;5034287;28;20250;-70
2021/05/13 01:27:18;;;;;;;3.80;2.42;;;10.00;86.50;;;;;;5017448;28;20022;-70
2021/05/13 01:29:47;;;;;;;4.55;2.67;;;10.00;86.60;;;;;;5034191;28;20454;-71
2021/05/13 01:32:17;;;;;;;3.90;2.60;;;9.90;86.80;;;;;;5034735;28;20021;-70
2021/05/13 01:34:43;;;;;;;5.35;2.78;;;10.00;86.90;;;;;;5034700;28;20026;-70
2021/05/13 01:37:09;;;;;;;3.00;2.38;;;9.90;86.70;;;;;;5034393;28;20025;-70
2021/05/13 01:39:35;;;;;;;3.75;2.40;;;10.00;86.50;;;;;;5016903;28;20490;-70
2021/05/13 01:42:01;;;;;;;2.63;1.90;;;10.00;86.50;;;;;;5016168;28;20441;-70
2021/05/13 01:44:26;;;;;;;1.83;1.52;;;10.00;87.00;;;;;;5034319;28;20037;-70
2021/05/13 01:46:52;;;;;;;2.95;1.67;;;10.10;87.10;;;;;;5015938;28;20099;-70
2021/05/13 01:49:23;;;;;;;2.88;1.58;;;10.20;87.60;;;;;;5016614;28;20506;-70
2021/05/13 01:51:50;;;;;;;2.40;1.70;;;10.20;86.90;;;;;;5033871;28;20471;-71
2021/05/13 01:54:17;;;;;;;2.42;1.90;;;10.10;86.20;;;;;;5016516;28;20033;-70
2021/05/13 01:56:43;;;;;;;3.72;2.17;;;10.10;85.90;;;;;;5016513;28;20485;-70
2021/05/13 01:59:09;;;;;;;4.38;1.83;;;9.90;86.50;;;;;;5014994;28;20032;-70
2021/05/13 02:01:35;;;;;;;2.78;1.90;;;9.90;87.10;;;;;;5034243;28;20029;-70
2021/05/13 02:04:01;;;;;;;5.13;2.10;;;9.80;87.30;;;;;;5015709;28;20033;-70
2021/05/13 02:06:27;;;;;;;3.30;1.77;;;9.70;86.50;;;;;;5016376;28;20022;-70
2021/05/13 02:08:53;;;;;;;3.25;2.10;;;9.70;86.50;;;;;;5015745;28;20045;-70
2021/05/13 02:11:19;;;;;;;3.33;2.20;;;9.70;86.50;;;;;;5034349;28;20049;-70
2021/05/13 02:13:44;;;;;;;3.10;2.20;;;9.60;86.40;;;;;;5033864;28;20057;-70
2021/05/13 02:16:10;;;;;;;3.30;2.15;;;9.50;86.30;;;;;;5015394;28;20112;-70
2021/05/13 02:18:36;;;;;;;3.50;1.80;;;9.50;86.40;;;;;;5016303;28;20032;-70
2021/05/13 02:21:01;;;;;;;7.53;2.17;;;9.50;86.20;;;;;;5015565;28;20034;-70
2021/05/13 02:23:27;;;;;;;3.78;1.90;;;9.60;86.00;;;;;;5033853;28;20375;-70
2021/05/13 02:25:53;;;;;;;2.90;1.92;;;9.60;85.80;;;;;;5033196;28;20025;-70
2021/05/13 02:28:19;;;;;;;3.15;2.00;;;9.60;85.70;;;;;;5016175;28;20025;-70
2021/05/13 02:30:45;;;;;;;4.05;2.03;;;9.60;85.70;;;;;;5015658;28;20466;-70
2021/05/13 02:33:11;;;;;;;6.03;2.03;;;9.60;85.70;;;;;;5033178;28;20033;-70
2021/05/13 02:35:38;;;;;;;2.60;2.10;;;9.50;86.10;;;;;;5032475;28;20030;-70
2021/05/13 02:38:04;;;;;;;2.22;2.00;;;9.50;86.80;;;;;;5032943;28;20106;-70
2021/05/13 02:40:30;;;;;;;4.82;1.80;;;9.50;86.30;;;;;;5033474;28;20033;-70
2021/05/13 02:42:55;;;;;;;3.75;1.80;;;9.40;86.60;;;;;;5032801;28;20466;-70
2021/05/13 02:45:21;;;;;;;2.10;1.65;;;9.30;86.90;;;;;;5033226;28;20025;-70
2021/05/13 02:47:47;;;;;;;4.20;1.95;;;9.40;87.00;;;;;;5015184;28;20401;-70
2021/05/13 02:50:15;;;;;;;3.70;1.80;;;9.50;86.50;;;;;;5032697;28;20017;-70
2021/05/13 02:52:41;;;;;;;2.00;1.30;;;9.50;85.80;;;;;;5015490;28;20045;-70
2021/05/13 02:55:09;;;;;;;3.88;1.73;;;9.50;85.40;;;;;;5032615;28;20080;-70
2021/05/13 02:57:36;;;;;;;1.73;1.50;;;9.50;85.10;;;;;;5033287;28;20057;-70
2021/05/13 03:02:46;;;;;;;1.90;1.50;;;9.40;85.30;;;;;;5033127;28;20029;-70
2021/05/13 03:05:13;;;;;;;2.78;1.63;;;9.20;85.50;;;;;;5032143;28;20406;-70
2021/05/13 03:07:46;;;;;;;2.53;1.80;;;9.20;86.70;;;;;;5033261;28;20095;-70
2021/05/13 03:10:17;;;;;;;1.63;1.42;;;9.10;86.00;;;;;;5032218;28;20032;-70
2021/05/13 03:12:43;;;;;;;2.45;1.48;;;9.10;85.90;;;;;;5032617;28;20483;-70
2021/05/13 03:15:09;;;;;;;2.13;1.63;;;9.20;85.60;;;;;;5014531;28;21134;-70
2021/05/13 03:17:35;;;;;;;2.38;1.38;;;9.20;85.10;;;;;;5015350;28;20124;-69
2021/05/13 03:20:01;;;;;;;2.58;1.33;;;9.20;85.10;;;;;;5014211;28;20382;-70
2021/05/13 03:22:27;;;;;;;2.45;1.50;;;9.20;84.80;;;;;;5015111;28;20117;-70
2021/05/13 03:24:56;;;;;;;2.38;1.40;;;9.20;84.80;;;;;;5014410;28;20055;-70
2021/05/13 03:29:53;;;;;;;1.88;1.38;;;9.10;84.80;;;;;;5032666;28;20021;-70
2021/05/13 03:32:19;;;;;;;2.15;1.52;;;9.00;85.30;;;;;;5032768;28;20072;-70
2021/05/13 03:34:45;;;;;;;2.38;1.30;;;8.90;85.80;;;;;;5014849;28;20068;-70
2021/05/13 03:37:11;;;;;;;6.63;1.40;;;8.90;86.00;;;;;;5032284;28;20030;-70
2021/05/13 03:39:36;;;;;;;2.13;1.40;;;8.80;86.40;;;;;;5032589;28;20036;-70
2021/05/13 03:42:02;;;;;;;2.63;1.38;;;8.70;86.70;;;;;;5031958;28;20025;-70
2021/05/13 03:44:28;;;;;;;2.10;1.48;;;8.70;86.70;;;;;;5014750;28;20033;-70
2021/05/13 03:46:53;;;;;;;2.25;1.55;;;8.80;86.60;;;;;;5031861;28;20056;-71
2021/05/13 03:49:19;;;;;;;2.17;1.50;;;8.80;86.10;;;;;;5031274;28;20465;-70
2021/05/13 03:51:45;;;;;;;4.35;1.35;;;8.70;86.30;;;;;;5014741;28;20463;-70
2021/05/13 03:54:10;;;;;;;3.63;1.60;;;8.70;86.50;;;;;;5030482;28;20033;-70
2021/05/13 03:56:36;;;;;;;1.88;1.40;;;8.60;86.70;;;;;;5014684;28;20049;-70
2021/05/13 03:59:08;;;;;;;4.63;1.58;;;8.60;87.10;;;;;;5030586;28;20028;-70
2021/05/13 04:02:02;;;;;;;6.03;1.95;;;8.60;87.40;;;;;;5031257;28;20426;-70
2021/05/13 04:04:28;;;;;;;3.58;1.48;;;8.60;87.40;;;;;;5014882;28;20084;-70
2021/05/13 04:06:54;;;;;;;5.18;2.00;;;8.60;87.30;;;;;;5031323;28;20033;-71
2021/05/13 04:09:19;;;;;;;2.50;1.88;;;8.80;86.80;;;;;;5014549;28;20025;-70
2021/05/13 04:11:45;;;;;;;4.07;2.10;;;8.80;86.30;;;;;;5014478;28;20524;-70
2021/05/13 04:14:10;;;;;;;5.00;1.90;;;8.70;86.40;;;;;;5031267;28;20030;-70
2021/05/13 04:16:39;;;;;;;3.35;1.90;;;8.80;86.60;;;;;;5032442;28;20029;-70
2021/05/13 04:19:06;;;;;;;3.35;1.63;;;8.80;86.90;;;;;;5031581;28;20113;-70
2021/05/13 04:21:32;;;;;;;2.17;1.70;;;8.80;87.00;;;;;;5032198;28;20056;-70
2021/05/13 04:23:57;;;;;;;2.17;1.77;;;8.70;87.30;;;;;;5033337;28;20117;-70
2021/05/13 04:26:23;;;;;;;4.72;1.73;;;8.80;87.70;;;;;;5035865;28;20048;-70
2021/05/13 04:28:52;;;;;;;3.08;1.58;;;8.80;87.70;;;;;;5036267;28;20040;-70
2021/05/13 04:31:18;;;;;;;4.40;1.88;;;8.80;88.10;;;;;;5035348;28;20029;-70
2021/05/13 04:33:43;;;;;;;2.75;1.80;;;8.90;88.20;;;;;;5034524;28;20183;-70
2021/05/13 04:36:09;;;;;;;1.52;1.30;;;8.90;88.30;;;;;;5017099;28;20037;-70
2021/05/13 04:38:35;;;;;;;2.35;1.45;;;8.90;88.20;;;;;;5035802;28;20029;-70
2021/05/13 04:41:01;;;;;;;3.92;2.13;;;8.90;88.40;;;;;;5033939;28;20080;-70
2021/05/13 04:43:36;;;;;;;2.63;1.58;;;9.00;88.30;;;;;;5034295;28;20385;-70
2021/05/13 04:46:02;;;;;;;2.95;1.90;;;9.00;88.20;;;;;;5034627;28;20041;-70
2021/05/13 04:48:41;;;;;;;3.10;1.92;;;9.00;88.30;;;;;;5035585;28;20030;-70
2021/05/13 04:51:07;;;;;;;3.00;2.00;;;8.90;88.80;;;;;;5017381;28;20036;-70
2021/05/13 04:53:32;;;;;;;2.95;1.75;;;9.00;88.70;;;;;;5035438;28;20120;-70
2021/05/13 04:55:58;;;;;;;2.00;1.70;;;9.00;88.40;;;;;;5034863;28;20041;-71
2021/05/13 04:58:24;;;;;;;2.67;1.58;;;9.10;88.30;;;;;;5035398;28;20017;-70
2021/05/13 05:00:50;;;;;;;2.08;1.50;;;9.10;88.30;;;;;;5017649;28;20043;-70
2021/05/13 05:03:16;;;;;;;2.38;1.83;;;9.20;88.30;;;;;;5034704;28;20325;-70
2021/05/13 05:05:41;;;;;;;3.78;1.77;;;9.20;88.40;;;;;;5017537;28;20033;-70
2021/05/13 05:08:07;;;;;;;4.05;2.00;;;9.30;88.60;;;;;;5034636;28;20032;-70
2021/05/13 05:10:32;;;;;;;3.85;2.20;;;9.30;88.70;;;;;;5033928;28;20040;-70
2021/05/13 05:12:58;;;;;;;4.68;1.90;;;9.30;89.30;;;;;;5034540;28;20064;-71
2021/05/13 05:15:24;;;;;;;4.28;2.15;;;9.30;90.00;;;;;;5017366;28;20120;-70
2021/05/13 05:17:49;;;;;;;3.25;2.25;;;9.30;90.20;;;;;;5017448;28;20030;-70
2021/05/13 05:20:15;;;;;;;4.68;2.20;;;9.40;90.20;;;;;;5034727;28;20021;-70
2021/05/13 05:22:41;;;;;;;6.55;2.10;;;9.40;90.10;;;;;;5017249;28;20446;-70
2021/05/13 05:25:07;;;;;;;5.20;2.03;;;9.40;90.40;;;;;;5033077;28;20080;-71
2021/05/13 05:27:34;;;;;;;6.68;2.00;;;9.40;90.40;;;;;;5017435;28;20022;-70
2021/05/13 05:30:00;;;;;;;3.85;2.35;;;9.40;90.60;;;;;;5032890;28;20037;-71
2021/05/13 05:32:25;;;;;;;2.17;1.60;;;9.40;90.60;;;;;;5016930;28;20029;-70
2021/05/13 05:34:51;;;;;;;6.05;2.15;;;9.50;90.40;;;;;;5033679;28;20144;-69
2021/05/13 05:37:17;;;;;;;2.97;1.88;;;9.60;90.40;;;;;;5016346;28;20128;-69
2021/05/13 05:39:45;;;;;;;4.07;2.40;;;9.60;90.30;;;;;;5017060;28;20025;-69
2021/05/13 05:42:11;;;;;;;6.45;2.33;;;9.70;90.30;;;;;;5032610;28;20029;-69
2021/05/13 05:44:36;;;;;;;4.80;2.38;;;9.70;90.50;;;;;;5034542;28;20087;-69
2021/05/13 05:47:02;;;;;;;4.32;2.65;;;9.70;90.70;;;;;;5033428;28;20053;-70
2021/05/13 05:49:28;;;;;;;4.72;1.90;;;9.70;90.50;;;;;;5033441;28;20034;-69
2021/05/13 05:51:53;;;;;;;3.25;2.00;;;9.80;90.70;;;;;;5016767;28;20036;-69
2021/05/13 05:54:19;;;;;;;3.22;2.45;;;9.80;90.60;;;;;;5033755;28;20034;-69
2021/05/13 05:56:44;;;;;;;4.78;2.25;;;9.90;90.40;;;;;;5034104;28;20021;-70
2021/05/13 05:59:10;;;;;;;3.20;2.00;;;9.90;90.30;;;;;;5015913;28;20466;-70
2021/05/13 06:01:37;;;;;;;2.60;1.20;;;9.90;90.30;;;;;;5016221;28;20026;-69
2021/05/13 06:04:05;;;;;;;3.47;1.30;;;10.00;89.70;;;;;;5033657;28;20057;-70
2021/05/13 06:06:30;;;;;;;5.90;1.52;;;10.10;87.90;;;;;;5016458;28;20108;-70
2021/05/13 06:08:56;;;;;;;2.58;1.00;;;10.30;87.10;;;;;;5034190;28;20546;-69
2021/05/13 06:11:21;;;;;;;1.27;0.90;;;10.30;86.20;;;;;;5015747;28;20036;-69
2021/05/13 06:13:47;;;;;;;2.45;1.80;;;10.30;85.60;;;;;;5033924;28;20045;-69
2021/05/13 06:16:13;;;;;;;2.33;0.98;;;10.40;85.90;;;;;;5015513;28;20064;-69
2021/05/13 06:18:49;;;;;;;1.55;1.00;;;10.40;85.90;;;;;;5016342;28;20075;-69
2021/05/13 06:21:14;;;;;;;2.70;1.13;;;10.40;86.30;;;;;;5033251;28;20025;-69
2021/05/13 06:23:49;;;;;;;2.85;1.27;;;10.40;86.90;;;;;;5016232;28;20124;-69
2021/05/13 06:26:25;;;;;;;4.22;1.10;;;10.50;86.70;;;;;;5015474;28;20029;-69
2021/05/13 06:28:51;;;;;;;2.42;1.08;;;10.50;85.60;;;;;;5033364;28;20466;-70
2021/05/13 06:31:16;;;;;;;1.70;1.10;;;10.60;85.70;;;;;;5033106;28;20030;-70
2021/05/13 06:33:42;;;;;;;2.95;1.08;;;10.60;85.80;;;;;;5033596;28;20467;-70
2021/05/13 06:36:08;;;;;;;6.68;3.33;;;10.80;85.10;;;;;;5014887;28;20072;-69
2021/05/13 06:38:33;;;;;;;5.10;2.70;;;10.80;84.70;;;;;;5015807;28;20053;-69
2021/05/13 06:40:59;;;;;;;15.85;9.32;;;10.90;84.40;;;;;;5033524;28;20029;-69
2021/05/13 06:43:25;;;;;;;7.47;3.33;;;10.90;84.20;;;;;;5015122;28;20519;-69
2021/05/13 06:45:51;;;;;;;19.02;9.98;;;11.00;84.30;;;;;;5011546;28;20045;-69
2021/05/13 06:48:16;;;;;;;3.92;1.95;;;11.10;83.80;;;;;;5011884;28;20055;-69
2021/05/13 06:50:42;;;;;;;10.32;5.07;;;11.10;84.10;;;;;;5012345;28;20085;-70
2021/05/13 06:53:07;;;;;;;2.80;1.58;;;11.10;84.70;;;;;;5012870;28;20053;-69
2021/05/13 06:55:33;;;;;;;1.63;1.15;;;11.10;84.00;;;;;;5013521;28;20478;-69
2021/05/13 06:57:59;;;;;;;1.83;1.00;;;11.20;83.50;;;;;;5028742;28;20030;-70
2021/05/13 07:00:25;;;;;;;1.30;1.00;;;11.30;83.20;;;;;;5011238;28;20030;-69
2021/05/13 07:02:52;;;;;;;3.10;1.00;;;11.30;82.90;;;;;;5012016;28;20030;-70
2021/05/13 07:05:17;;;;;;;1.67;1.17;;;11.40;82.40;;;;;;5011525;28;20084;-70
2021/05/13 07:07:43;;;;;;;1.95;0.80;;;11.40;81.30;;;;;;5013341;28;20479;-69
2021/05/13 07:10:10;;;;;;;2.33;1.00;;;11.40;80.70;;;;;;5011385;28;20061;-70
2021/05/13 07:12:36;;;;;;;1.40;0.80;;;11.50;81.50;;;;;;5012173;28;20022;-69
2021/05/13 07:15:03;;;;;;;2.15;0.90;;;11.60;81.60;;;;;;5013092;28;20036;-70
2021/05/13 07:17:29;;;;;;;2.35;1.00;;;11.60;81.00;;;;;;5011587;28;20034;-69
2021/05/13 07:19:55;;;;;;;1.08;0.77;;;11.60;80.50;;;;;;5011834;28;20032;-69
2021/05/13 07:22:21;;;;;;;3.83;1.30;;;11.60;80.40;;;;;;5011274;28;20033;-70
2021/05/13 07:24:50;;;;;;;1.05;0.80;;;11.50;80.40;;;;;;5011946;28;20058;-69
2021/05/13 07:27:16;;;;;;;0.93;0.60;;;11.60;79.90;;;;;;5011114;28;20490;-70
2021/05/13 07:29:42;;;;;;;4.10;0.80;;;11.70;79.90;;;;;;5012686;28;20482;-69
2021/05/13 07:32:08;;;;;;;1.95;0.95;;;11.80;80.30;;;;;;5012084;28;20030;-70
2021/05/13 07:34:34;;;;;;;2.80;0.80;;;11.80;79.80;;;;;;5011593;28;20038;-69
2021/05/13 07:37:02;;;;;;;3.15;0.90;;;11.90;79.50;;;;;;5011591;28;20388;-69
2021/05/13 07:39:28;;;;;;;2.13;0.95;;;12.00;79.40;;;;;;5011089;28;20493;-69
2021/05/13 07:41:54;;;;;;;2.00;0.90;;;12.10;78.70;;;;;;5011685;28;20169;-69
2021/05/13 07:44:20;;;;;;;2.88;0.70;;;12.10;78.70;;;;;;5010932;28;20466;-69
2021/05/13 07:46:47;;;;;;;0.90;0.73;;;12.30;78.10;;;;;;5023680;28;20045;-69
2021/05/13 07:49:12;;;;;;;3.25;0.90;;;12.40;78.10;;;;;;5031900;28;20073;-70
2021/05/13 07:51:41;;;;;;;2.35;0.77;;;12.40;77.30;;;;;;5014718;28;20474;-69
2021/05/13 07:54:07;;;;;;;3.42;1.00;;;12.40;76.50;;;;;;5031765;28;20034;-70
2021/05/13 07:56:33;;;;;;;2.83;0.73;;;12.50;76.10;;;;;;5032140;28;20037;-69
2021/05/13 07:58:58;;;;;;;1.48;0.65;;;12.60;76.30;;;;;;5035834;28;20033;-69
2021/05/13 08:01:24;;;;;;;28.95;12.82;;;12.60;76.60;;;;;;5018186;28;20029;-70
2021/05/13 08:03:50;;;;;;;33.60;16.35;;;12.60;76.20;;;;;;5018763;28;20116;-69
2021/05/13 08:06:15;;;;;;;14.63;7.65;;;12.60;76.00;;;;;;5018113;28;20030;-70
2021/05/13 08:08:41;;;;;;;4.70;2.33;;;12.70;76.00;;;;;;5018592;28;20040;-69
2021/05/13 08:11:07;;;;;;;1.60;1.23;;;12.80;76.10;;;;;;5036338;28;20025;-70
2021/05/13 08:13:33;;;;;;;4.80;1.38;;;12.90;75.90;;;;;;5018457;28;20475;-70
2021/05/13 08:15:58;;;;;;;3.10;1.17;;;13.00;75.60;;;;;;5018355;28;20087;-70
2021/05/13 08:18:24;;;;;;;1.15;0.90;;;13.00;75.40;;;;;;5035625;28;20044;-70
2021/05/13 08:20:50;;;;;;;2.25;0.70;;;13.10;75.60;;;;;;5018639;28;20071;-70
2021/05/13 08:23:16;;;;;;;2.65;0.90;;;13.20;75.70;;;;;;5017782;28;20079;-70
2021/05/13 08:25:41;;;;;;;0.98;0.70;;;13.20;75.40;;;;;;5018450;28;20029;-70
2021/05/13 08:28:08;;;;;;;1.75;0.70;;;13.30;74.20;;;;;;5034463;28;20028;-70
2021/05/13 08:30:34;;;;;;;1.38;0.70;;;13.40;73.50;;;;;;5018195;28;20029;-71
2021/05/13 08:33:00;;;;;;;2.35;0.63;;;13.50;73.90;;;;;;5035881;28;20025;-70
2021/05/13 08:35:25;;;;;;;3.65;0.80;;;13.60;72.90;;;;;;5017618;28;20367;-70
2021/05/13 08:37:51;;;;;;;2.38;1.00;;;13.70;73.60;;;;;;5034290;28;20036;-70
2021/05/13 08:40:18;;;;;;;1.88;0.60;;;13.70;72.40;;;;;;5017473;28;20025;-70
2021/05/13 08:42:43;;;;;;;2.75;0.90;;;13.80;73.30;;;;;;5018046;28;20021;-70
2021/05/13 08:45:10;;;;;;;1.58;0.45;;;13.90;73.10;;;;;;5035386;28;20056;-73
2021/05/13 08:47:42;;;;;;;2.13;0.80;;;14.00;71.30;;;;;;5014240;28;20058;-70
2021/05/13 08:50:08;;;;;;;3.88;0.65;;;14.00;70.60;;;;;;5014611;28;20026;-70
2021/05/13 08:52:33;;;;;;;8.27;4.03;;;14.10;71.20;;;;;;5014909;28;20037;-70
2021/05/13 08:55:01;;;;;;;30.27;15.15;;;14.20;70.40;;;;;;5014418;28;20034;-70
2021/05/13 08:57:28;;;;;;;3.50;1.75;;;14.20;70.70;;;;;;5013252;28;20034;-70
2021/05/13 08:59:55;;;;;;;4.15;1.25;;;14.30;70.30;;;;;;5014416;28;20029;-70
2021/05/13 09:02:22;;;;;;;3.53;1.20;;;14.30;70.40;;;;;;5030205;28;20379;-70
2021/05/13 09:04:52;;;;;;;2.92;0.82;;;14.40;69.70;;;;;;5015640;28;20463;-70
2021/05/13 09:07:26;;;;;;;3.67;1.00;;;14.40;71.00;;;;;;5013662;28;20103;-70
2021/05/13 09:09:59;;;;;;;1.85;1.13;;;14.50;71.40;;;;;;5015274;28;20018;-70
2021/05/13 09:12:28;;;;;;;2.10;1.20;;;14.50;72.00;;;;;;5013467;28;20037;-70
2021/05/13 09:15:20;;;;;;;5.05;0.95;;;14.60;71.00;;;;;;5013984;28;20041;-69
2021/05/13 09:18:01;;;;;;;3.30;1.25;;;14.60;70.60;;;;;;5014230;28;20446;-70
2021/05/13 09:20:28;;;;;;;3.25;1.20;;;14.70;70.40;;;;;;5013531;28;20394;-70
2021/05/13 09:23:20;;;;;;;1.80;1.15;;;14.70;70.30;;;;;;5015277;28;20149;-70
2021/05/13 09:26:05;;;;;;;2.35;1.25;;;14.80;71.00;;;;;;5005206;28;20133;-70
2021/05/13 09:28:30;;;;;;;2.63;1.20;;;14.80;71.70;;;;;;5014657;28;20034;-70
2021/05/13 09:30:56;;;;;;;5.82;1.65;;;14.80;72.00;;;;;;5015118;28;20459;-70
2021/05/13 09:33:30;;;;;;;3.75;1.30;;;14.90;71.50;;;;;;5014358;28;20037;-70
2021/05/13 09:35:56;;;;;;;2.53;1.30;;;15.00;71.40;;;;;;5013807;28;20044;-70
2021/05/13 09:38:34;;;;;;;5.07;1.58;;;15.10;70.40;;;;;;5013122;28;20032;-70
2021/05/13 09:41:01;;;;;;;2.13;1.05;;;15.30;68.40;;;;;;5014591;28;20076;-70
2021/05/13 09:43:34;;;;;;;2.35;1.05;;;15.40;68.40;;;;;;5012987;28;20033;-70
2021/05/13 09:46:02;;;;;;;2.08;1.15;;;15.60;68.10;;;;;;5019049;28;20053;-70
2021/05/13 09:48:46;;;;;;;4.15;1.00;;;15.80;67.20;;;;;;5016336;28;20030;-70
2021/05/13 09:51:30;;;;;;;2.10;1.10;;;15.90;63.70;;;;;;5034592;28;20049;-70
2021/05/13 09:54:20;;;;;;;2.53;0.88;;;16.10;63.70;;;;;;5034428;28;20033;-70
2021/05/13 09:56:47;;;;;;;1.73;1.08;;;16.10;61.60;;;;;;5016928;28;20033;-70
2021/05/13 09:59:23;;;;;;;2.25;1.10;;;16.20;64.00;;;;;;5016617;28;20030;-70
2021/05/13 10:01:52;;;;;;;1.83;1.23;;;16.30;65.60;;;;;;5016164;28;20030;-70
2021/05/13 10:04:18;;;;;;;5.85;1.45;;;16.40;64.80;;;;;;5015827;28;20087;-71
2021/05/13 10:06:44;;;;;;;2.78;1.20;;;16.40;64.40;;;;;;5034229;28;20075;-71
2021/05/13 10:09:17;;;;;;;2.95;1.60;;;16.40;65.60;;;;;;5016395;28;20025;-70
2021/05/13 10:12:03;;;;;;;2.95;1.17;;;16.40;65.00;;;;;;5016227;28;20083;-71
2021/05/13 10:14:29;;;;;;;46.88;22.75;;;16.50;65.60;;;;;;5032811;28;20037;-70
2021/05/13 10:16:59;;;;;;;17.75;9.52;;;16.60;65.20;;;;;;5015894;28;20040;-70
2021/05/13 10:19:29;;;;;;;14.48;8.63;;;16.60;65.90;;;;;;5033264;28;20067;-70
2021/05/13 10:21:59;;;;;;;5.78;1.80;;;16.70;64.30;;;;;;5015640;28;20032;-70
2021/05/13 10:24:24;;;;;;;17.55;7.70;;;16.70;64.60;;;;;;5033244;28;20025;-70
2021/05/13 10:26:51;;;;;;;6.85;4.30;;;16.70;65.00;;;;;;5016210;28;20432;-70
2021/05/13 10:29:20;;;;;;;5.25;2.25;;;16.70;65.50;;;;;;5015421;28;20033;-71
2021/05/13 10:31:46;;;;;;;3.03;1.42;;;16.80;66.70;;;;;;5033696;28;20032;-70
2021/05/13 10:34:12;;;;;;;3.15;1.40;;;16.80;64.00;;;;;;5033570;28;20127;-70
2021/05/13 10:36:37;;;;;;;3.42;1.30;;;16.70;65.60;;;;;;5031975;28;20025;-70
2021/05/13 10:39:09;;;;;;;3.13;1.27;;;16.70;65.20;;;;;;5015815;28;20462;-70
2021/05/13 10:41:42;;;;;;;1.70;1.10;;;16.80;64.90;;;;;;5015228;28;20029;-70
2021/05/13 10:44:11;;;;;;;1.85;0.90;;;16.90;65.00;;;;;;5015669;28;20466;-70
2021/05/13 10:46:54;;;;;;;2.88;1.10;;;17.10;63.40;;;;;;5014873;28;20321;-70
2021/05/13 10:49:23;;;;;;;1.55;0.95;;;17.30;62.60;;;;;;5015137;28;20120;-70
2021/05/13 10:51:55;;;;;;;3.78;1.13;;;17.40;62.90;;;;;;5033382;28;20051;-70
2021/05/13 10:54:46;;;;;;;4.43;1.00;;;17.30;61.90;;;;;;5014978;28;20037;-70
2021/05/13 10:57:17;;;;;;;3.17;1.00;;;17.30;62.60;;;;;;5007814;28;20575;-70
2021/05/13 11:00:08;;;;;;;3.40;1.00;;;17.30;61.80;;;;;;5033255;28;20467;-70
2021/05/13 11:02:41;;;;;;;3.90;0.85;;;17.40;60.90;;;;;;5014869;28;20108;-70
2021/05/13 11:05:29;;;;;;;2.00;0.70;;;17.40;60.90;;;;;;5033127;28;20037;-71
2021/05/13 11:07:55;;;;;;;1.55;0.50;;;17.40;58.80;;;;;;5032960;28;20014;-70
2021/05/13 11:10:41;;;;;;;0.88;0.50;;;17.50;57.60;;;;;;5014673;28;20032;-70
2021/05/13 11:13:10;;;;;;;2.22;0.40;;;17.60;56.70;;;;;;5014956;28;20378;-70
2021/05/13 11:15:42;;;;;;;3.00;0.50;;;17.60;56.80;;;;;;5031943;28;20386;-70
2021/05/13 11:18:11;;;;;;;0.60;0.45;;;17.70;57.60;;;;;;5015401;28;20044;-70
2021/05/13 11:20:45;;;;;;;1.42;0.60;;;17.60;58.00;;;;;;5014618;28;20095;-70
2021/05/13 11:23:17;;;;;;;0.63;0.60;;;17.60;57.70;;;;;;5032606;28;20100;-70
2021/05/13 11:25:43;;;;;;;;;;;17.70;58.00;;;;;;5014964;28;20049;-70
2021/05/13 11:28:43;;;;;;;2.05;0.60;;;17.80;58.00;;;;;;5015074;28;20380;-70
2021/05/13 11:31:20;;;;;;;3.08;0.70;;;17.80;58.10;;;;;;5032377;28;20045;-70
2021/05/13 11:33:50;;;;;;;1.00;0.60;;;17.80;59.40;;;;;;5014608;28;20072;-70
2021/05/13 11:36:18;;;;;;;1.05;0.40;;;17.80;59.10;;;;;;5032521;28;20025;-70
2021/05/13 11:38:49;;;;;;;1.75;0.80;;;17.90;57.60;;;;;;5014317;28;20055;-70
2021/05/13 11:41:16;;;;;;;2.65;0.98;;;18.00;57.20;;;;;;5032674;28;20072;-70
2021/05/13 11:43:42;;;;;;;1.73;0.57;;;18.00;57.40;;;;;;5014252;28;20406;-70
2021/05/13 11:46:15;;;;;;;1.35;0.50;;;18.00;57.40;;;;;;5030118;28;20050;-70
2021/05/13 11:48:45;;;;;;;4.22;0.60;;;18.00;57.20;;;;;;5014217;28;20082;-70
2021/05/13 11:51:23;;;;;;;1.73;0.57;;;18.00;57.60;;;;;;5032821;28;20103;-70
2021/05/13 11:53:51;;;;;;;1.27;0.55;;;17.90;57.30;;;;;;5032685;28;20231;-70
2021/05/13 11:56:17;;;;;;;1.92;0.70;;;17.80;58.40;;;;;;5032438;28;20103;-70
2021/05/13 11:59:12;;;;;;;1.73;0.50;;;17.80;57.90;;;;;;5014012;28;20069;-70
2021/05/13 12:01:39;;;;;;;1.65;0.80;;;17.90;57.70;;;;;;4996889;28;20083;-70
2021/05/13 12:04:12;;;;;;;2.78;0.90;;;17.80;57.60;;;;;;5014617;28;20040;-72
2021/05/13 12:06:43;;;;;;;3.22;0.90;;;17.70;57.30;;;;;;5031760;28;20030;-70
2021/05/13 12:09:09;;;;;;;1.50;0.55;;;17.60;57.30;;;;;;5014247;28;20026;-70
2021/05/13 12:11:35;;;;;;;1.70;0.50;;;17.80;56.70;;;;;;5013991;28;20026;-70
2021/05/13 12:14:07;;;;;;;1.15;0.57;;;17.80;56.90;;;;;;5032188;28;20045;-70
2021/05/13 12:16:33;;;;;;;2.90;0.50;;;18.00;57.00;;;;;;5013859;28;20022;-70
2021/05/13 12:19:05;;;;;;;45.75;22.77;;;18.10;57.00;;;;;;5014427;28;20041;-70
2021/05/13 12:21:34;;;;;;;20.75;12.07;;;18.30;57.30;;;;;;5031638;28;20053;-70
2021/05/13 12:24:00;;;;;;;6.15;2.83;;;18.40;57.40;;;;;;5014307;28;20060;-70
2021/05/13 12:26:30;;;;;;;3.63;0.90;;;18.90;57.80;;;;;;5031498;28;20024;-70
2021/05/13 12:28:56;;;;;;;1.73;0.90;;;19.10;56.10;;;;;;5032066;28;20125;-70
2021/05/13 12:31:27;;;;;;;1.60;0.70;;;19.30;54.10;;;;;;5031769;28;20034;-70
2021/05/13 12:33:53;;;;;;;2.83;0.80;;;19.40;54.60;;;;;;5031916;28;20030;-70
2021/05/13 12:36:19;;;;;;;12.30;6.60;;;19.50;54.20;;;;;;5031996;28;20032;-70
2021/05/13 12:38:45;;;;;;;7.88;4.65;;;19.70;53.80;;;;;;5031192;28;20474;-70
2021/05/13 12:41:29;;;;;;;2.60;1.10;;;19.70;51.60;;;;;;5032060;28;20036;-70
2021/05/13 12:44:05;;;;;;;3.90;1.00;;;19.80;50.70;;;;;;5033423;28;20105;-70
2021/05/13 12:46:31;;;;;;;1.95;1.02;;;19.40;53.30;;;;;;5016723;28;20433;-70
2021/05/13 12:48:56;;;;;;;1.15;0.32;;;19.10;57.50;;;;;;5017931;28;20113;-70
2021/05/13 12:51:24;;;;;;;2.30;0.70;;;18.70;58.60;;;;;;5017909;28;20030;-70
2021/05/13 12:53:57;;;;;;;1.55;0.50;;;18.30;60.20;;;;;;5017570;28;20112;-70
2021/05/13 12:56:33;;;;;;;1.50;0.47;;;18.10;60.70;;;;;;5017819;28;20352;-70
2021/05/13 12:59:10;;;;;;;2.95;1.15;;;17.70;61.70;;;;;;5035568;28;20052;-70
2021/05/13 13:01:41;;;;;;;2.50;1.45;;;17.30;63.40;;;;;;5034684;28;20048;-70
2021/05/13 13:04:08;;;;;;;3.50;2.20;;;17.10;64.30;;;;;;5035171;28;20026;-70